Campanya meteocatpedra

Dades EMA Navata

?
?
Resum diari
Dades diàries de l'estació meteorològica
Temperatura mitjana 10.3 °C
Temperatura màxima 15.4 °C 14:03 TU
Temperatura mínima 6.0 °C 22:59 TU
Humitat relativa mitjana 75%
Precipitació acumulada 11.2 mm
Ratxa màxima del vent (10 m) 66.6 km/h - 97º 1:40 TU
Irradiació solar global 12.6 MJ/m2

El tram horari està expressat en Temps Universal (TU). Cal sumar una hora en horari d'hivern i dues en horari d'estiu per passar a l'hora oficial.

Navata

Metadades estació meteorol´gica
Municipi Navata
Comarca Alt Empordà
Altitud 152 m
Data alta 26.08.2014
Estat actual Operativa
Dades de període
Període
TU
TM
°C
TX
°C
TN
°C
HRM
%
PPT
mm
VVM (10 m)
km/h
DVM (10 m)
graus
VVX (10 m)
km/h
RS
W/m2
00:00 - 00:30 12.0 12.1 12.0 91 0.0 27.7 43 45.4 0
00:30 - 01:00 12.0 12.0 12.0 92 0.0 28.4 44 45.7 0
01:00 - 01:30 12.0 12.2 11.9 92 0.6 29.5 42 43.9 0
01:30 - 02:00 11.2 12.1 10.1 97 6.2 30.2 87 66.6 1
02:00 - 02:30 9.9 10.0 9.8 98 0.9 15.1 77 26.3 0
02:30 - 03:00 10.0 10.5 9.8 98 1.5 14.0 37 28.4 0
03:00 - 03:30 10.4 10.5 10.1 99 1.5 17.3 40 27.7 0
03:30 - 04:00 10.1 10.2 10.1 99 0.2 18.0 38 28.1 0
04:00 - 04:30 10.6 11.3 10.2 99 0.0 18.4 54 31.3 0
04:30 - 05:00 11.2 11.3 10.7 99 0.0 17.3 70 28.4 0
05:00 - 05:30 10.1 10.6 9.2 99 0.0 15.5 132 27.4 1
05:30 - 06:00 8.4 9.1 7.9 98 0.0 11.9 157 22.7 5
06:00 - 06:30 7.9 8.0 7.8 99 0.0 8.6 154 18.7 27
06:30 - 07:00 7.2 8.0 6.8 97 0.0 16.2 178 28.8 22
07:00 - 07:30 6.5 6.8 6.4 95 0.0 19.1 179 35.6 25
07:30 - 08:00 6.9 7.2 6.6 88 0.3 20.5 206 36.0 50
08:00 - 08:30 7.1 7.4 6.8 79 0.0 22.0 219 43.9 105
08:30 - 09:00 7.5 7.6 7.4 77 0.0 18.4 233 33.8 194
09:00 - 09:30 8.8 10.0 7.6 75 0.0 19.8 231 39.6 522
09:30 - 10:00 10.6 11.1 10.0 67 0.0 22.0 226 42.5 717
10:00 - 10:30 11.1 11.6 10.6 62 0.0 23.4 216 45.4 568
10:30 - 11:00 11.2 11.7 10.9 59 0.0 22.7 226 41.4 438
11:00 - 11:30 12.5 12.8 12.0 56 0.0 22.3 227 38.9 740
11:30 - 12:00 13.0 13.7 12.2 56 0.0 16.6 229 29.5 673
12:00 - 12:30 13.4 13.9 12.7 56 0.0 13.7 229 25.2 612
12:30 - 13:00 13.8 14.5 13.2 55 0.0 12.2 242 22.7 478
13:00 - 13:30 13.6 14.6 13.3 54 0.0 12.2 219 24.8 260
13:30 - 14:00 14.3 15.0 13.9 53 0.0 18.4 198 31.3 455
14:00 - 14:30 14.6 15.4 13.9 52 0.0 19.8 188 34.2 381
14:30 - 15:00 13.7 13.8 13.6 58 0.0 19.4 186 35.6 111
15:00 - 15:30 12.6 13.6 11.3 57 0.0 14.8 244 31.0 53
15:30 - 16:00 11.3 11.5 11.0 64 0.0 20.5 253 36.7 185
16:00 - 16:30 10.9 11.3 10.2 65 0.0 18.4 249 33.8 229
16:30 - 17:00 10.2 10.6 10.0 65 0.0 13.3 238 23.8 98
17:00 - 17:30 10.5 10.7 10.4 61 0.0 12.2 225 22.7 64
17:30 - 18:00 10.8 10.9 10.5 59 0.0 13.3 227 22.0 34
18:00 - 18:30 10.2 10.6 9.9 62 0.0 10.8 214 18.4 0
18:30 - 19:00 9.7 9.9 9.4 64 0.0 13.7 223 24.1 0
19:00 - 19:30 9.1 9.4 8.6 66 0.0 13.7 224 24.5 0
19:30 - 20:00 8.8 9.1 8.6 66 0.0 11.5 229 20.5 0
20:00 - 20:30 8.5 8.7 7.7 67 0.0 6.8 246 12.2 0
20:30 - 21:00 7.7 8.0 7.5 70 0.0 3.2 256 7.9 0
21:00 - 21:30 7.3 8.2 6.9 74 0.0 5.0 172 8.6 0
21:30 - 22:00 8.2 8.5 7.8 69 0.0 5.8 201 11.5 0
22:00 - 22:30 7.4 7.7 7.2 74 0.0 8.3 213 11.5 0
22:30 - 23:00 6.8 7.2 6.0 76 0.0 6.1 190 10.1 0
23:00 - 23:30 (s/d) (s/d) (s/d) (s/d) (s/d) (s/d) (s/d) (s/d) (s/d)

Les dades en taronja només han passat un control de qualitat automàtic. Resta pendent la seva validació definitiva.